sensor_id;sensor_type;location;lat;lon;timestamp;temperature;humidity
30467;DHT22;17258;52.560;13.046;2022-09-28T00:04:46;14.20;60.70
30467;DHT22;17258;52.560;13.046;2022-09-28T00:14:47;14.30;60.70
30467;DHT22;17258;52.560;13.046;2022-09-28T00:24:47;14.40;60.80
30467;DHT22;17258;52.560;13.046;2022-09-28T00:34:48;14.40;60.80
30467;DHT22;17258;52.560;13.046;2022-09-28T00:44:53;14.40;60.90
30467;DHT22;17258;52.560;13.046;2022-09-28T00:54:58;14.50;61.00
30467;DHT22;17258;52.560;13.046;2022-09-28T01:05:01;14.50;60.90
30467;DHT22;17258;52.560;13.046;2022-09-28T01:15:03;14.50;60.90
30467;DHT22;17258;52.560;13.046;2022-09-28T01:25:16;14.50;60.90
30467;DHT22;17258;52.560;13.046;2022-09-28T01:35:35;14.50;61.00
30467;DHT22;17258;52.560;13.046;2022-09-28T01:46:01;14.60;61.50
30467;DHT22;17258;52.560;13.046;2022-09-28T01:56:13;14.60;61.20
30467;DHT22;17258;52.560;13.046;2022-09-28T02:06:23;14.60;61.40
30467;DHT22;17258;52.560;13.046;2022-09-28T02:16:39;14.60;61.30
30467;DHT22;17258;52.560;13.046;2022-09-28T02:26:43;14.70;61.60
30467;DHT22;17258;52.560;13.046;2022-09-28T02:36:47;14.70;61.20
30467;DHT22;17258;52.560;13.046;2022-09-28T03:08:10;14.70;61.20
30467;DHT22;17258;52.560;13.046;2022-09-28T03:18:18;14.70;61.50
30467;DHT22;17258;52.560;13.046;2022-09-28T03:28:19;14.80;61.20
30467;DHT22;17258;52.560;13.046;2022-09-28T03:38:20;14.80;61.10
30467;DHT22;17258;52.560;13.046;2022-09-28T03:48:28;14.70;61.00
30467;DHT22;17258;52.560;13.046;2022-09-28T03:58:31;14.70;61.00
30467;DHT22;17258;52.560;13.046;2022-09-28T04:08:31;14.60;60.80
30467;DHT22;17258;52.560;13.046;2022-09-28T04:18:32;14.50;60.70
30467;DHT22;17258;52.560;13.046;2022-09-28T04:28:34;14.40;60.60
30467;DHT22;17258;52.560;13.046;2022-09-28T04:38:53;14.30;60.60
30467;DHT22;17258;52.560;13.046;2022-09-28T04:48:54;13.90;61.10
30467;DHT22;17258;52.560;13.046;2022-09-28T04:58:54;14.10;60.80
30467;DHT22;17258;52.560;13.046;2022-09-28T05:08:55;14.00;60.80
30467;DHT22;17258;52.560;13.046;2022-09-28T05:18:56;13.90;61.00
30467;DHT22;17258;52.560;13.046;2022-09-28T05:28:57;13.90;61.20
30467;DHT22;17258;52.560;13.046;2022-09-28T05:38:58;13.90;61.40
30467;DHT22;17258;52.560;13.046;2022-09-28T05:48:58;13.90;61.90
30467;DHT22;17258;52.560;13.046;2022-09-28T05:58:59;14.00;62.50
30467;DHT22;17258;52.560;13.046;2022-09-28T06:09:01;14.20;62.60
30467;DHT22;17258;52.560;13.046;2022-09-28T06:19:01;14.40;62.40
30467;DHT22;17258;52.560;13.046;2022-09-28T06:29:02;14.60;62.20
30467;DHT22;17258;52.560;13.046;2022-09-28T06:39:03;14.80;62.10
30467;DHT22;17258;52.560;13.046;2022-09-28T06:49:04;14.90;61.90
30467;DHT22;17258;52.560;13.046;2022-09-28T06:59:09;15.00;61.80
30467;DHT22;17258;52.560;13.046;2022-09-28T07:09:10;15.10;61.70
30467;DHT22;17258;52.560;13.046;2022-09-28T07:19:10;15.20;61.60
30467;DHT22;17258;52.560;13.046;2022-09-28T07:29:11;15.30;61.60
30467;DHT22;17258;52.560;13.046;2022-09-28T07:39:12;15.40;61.50
30467;DHT22;17258;52.560;13.046;2022-09-28T07:49:13;15.40;61.40
30467;DHT22;17258;52.560;13.046;2022-09-28T07:59:15;15.50;61.40
30467;DHT22;17258;52.560;13.046;2022-09-28T08:09:16;15.50;61.40
30467;DHT22;17258;52.560;13.046;2022-09-28T08:19:17;15.50;61.40
30467;DHT22;17258;52.560;13.046;2022-09-28T08:29:18;15.60;61.50
30467;DHT22;17258;52.560;13.046;2022-09-28T08:39:18;15.70;61.60
30467;DHT22;17258;52.560;13.046;2022-09-28T08:49:39;15.80;61.80
30467;DHT22;17258;52.560;13.046;2022-09-28T08:59:53;16.00;61.90
30467;DHT22;17258;52.560;13.046;2022-09-28T09:10:35;16.20;61.80
30467;DHT22;17258;52.560;13.046;2022-09-28T09:20:58;16.30;61.70
30467;DHT22;17258;52.560;13.046;2022-09-28T09:41:15;16.50;62.10
30467;DHT22;17258;52.560;13.046;2022-09-28T09:52:00;17.10;61.40
30467;DHT22;17258;52.560;13.046;2022-09-28T10:02:24;17.20;61.30
30467;DHT22;17258;52.560;13.046;2022-09-28T10:12:29;17.40;61.00
30467;DHT22;17258;52.560;13.046;2022-09-28T10:22:30;17.60;60.90
30467;DHT22;17258;52.560;13.046;2022-09-28T10:32:42;17.80;60.60
30467;DHT22;17258;52.560;13.046;2022-09-28T10:42:46;17.90;59.60
30467;DHT22;17258;52.560;13.046;2022-09-28T10:52:47;18.00;59.80
30467;DHT22;17258;52.560;13.046;2022-09-28T11:02:48;18.00;59.50
30467;DHT22;17258;52.560;13.046;2022-09-28T11:12:49;17.90;59.10
30467;DHT22;17258;52.560;13.046;2022-09-28T11:22:52;17.90;59.20
30467;DHT22;17258;52.560;13.046;2022-09-28T11:32:59;17.90;59.30
30467;DHT22;17258;52.560;13.046;2022-09-28T11:43:16;18.10;59.30
30467;DHT22;17258;52.560;13.046;2022-09-28T11:53:43;18.10;59.30
30467;DHT22;17258;52.560;13.046;2022-09-28T12:03:52;18.10;58.40
30467;DHT22;17258;52.560;13.046;2022-09-28T12:13:57;18.10;58.70
30467;DHT22;17258;52.560;13.046;2022-09-28T12:24:05;18.10;58.60
30467;DHT22;17258;52.560;13.046;2022-09-28T12:34:11;18.10;58.70
30467;DHT22;17258;52.560;13.046;2022-09-28T12:55:02;18.10;58.50
30467;DHT22;17258;52.560;13.046;2022-09-28T13:26:21;18.20;58.20
30467;DHT22;17258;52.560;13.046;2022-09-28T14:17:56;18.10;57.90
30467;DHT22;17258;52.560;13.046;2022-09-28T14:39:04;17.90;57.60
30467;DHT22;17258;52.560;13.046;2022-09-28T14:49:43;17.90;57.90
30467;DHT22;17258;52.560;13.046;2022-09-28T14:59:45;17.70;57.70
30467;DHT22;17258;52.560;13.046;2022-09-28T15:09:48;17.70;58.10
30467;DHT22;17258;52.560;13.046;2022-09-28T15:30:21;17.70;58.00
30467;DHT22;17258;52.560;13.046;2022-09-28T15:40:34;17.70;58.20
30467;DHT22;17258;52.560;13.046;2022-09-28T15:50:37;17.70;57.80
30467;DHT22;17258;52.560;13.046;2022-09-28T16:00:45;17.60;57.70
30467;DHT22;17258;52.560;13.046;2022-09-28T16:21:42;17.20;57.90
30467;DHT22;17258;52.560;13.046;2022-09-28T16:31:44;17.00;58.00
30467;DHT22;17258;52.560;13.046;2022-09-28T16:41:54;16.90;58.00
30467;DHT22;17258;52.560;13.046;2022-09-28T16:51:55;16.70;58.00
30467;DHT22;17258;52.560;13.046;2022-09-28T17:01:56;16.60;58.00
30467;DHT22;17258;52.560;13.046;2022-09-28T17:11:57;16.40;58.10
30467;DHT22;17258;52.560;13.046;2022-09-28T17:21:57;16.30;58.20
30467;DHT22;17258;52.560;13.046;2022-09-28T17:31:58;16.10;58.40
30467;DHT22;17258;52.560;13.046;2022-09-28T17:41:59;16.00;58.50
30467;DHT22;17258;52.560;13.046;2022-09-28T17:51:59;15.90;58.70
30467;DHT22;17258;52.560;13.046;2022-09-28T18:02:00;15.90;58.80
30467;DHT22;17258;52.560;13.046;2022-09-28T18:12:03;15.90;58.90
30467;DHT22;17258;52.560;13.046;2022-09-28T18:22:04;15.80;59.00
30467;DHT22;17258;52.560;13.046;2022-09-28T18:32:05;15.70;58.90
30467;DHT22;17258;52.560;13.046;2022-09-28T18:42:06;15.70;59.00
30467;DHT22;17258;52.560;13.046;2022-09-28T18:52:06;15.60;59.00
30467;DHT22;17258;52.560;13.046;2022-09-28T19:02:07;15.50;59.00
30467;DHT22;17258;52.560;13.046;2022-09-28T19:12:11;15.40;59.00
30467;DHT22;17258;52.560;13.046;2022-09-28T19:22:12;15.30;59.00
30467;DHT22;17258;52.560;13.046;2022-09-28T19:32:12;15.20;59.10
30467;DHT22;17258;52.560;13.046;2022-09-28T19:42:14;15.20;59.20
30467;DHT22;17258;52.560;13.046;2022-09-28T19:52:15;15.10;59.30
30467;DHT22;17258;52.560;13.046;2022-09-28T20:02:15;15.00;59.30
30467;DHT22;17258;52.560;13.046;2022-09-28T20:12:16;15.00;59.50
30467;DHT22;17258;52.560;13.046;2022-09-28T20:22:17;14.90;59.50
30467;DHT22;17258;52.560;13.046;2022-09-28T20:32:19;14.90;59.60
30467;DHT22;17258;52.560;13.046;2022-09-28T20:42:19;14.90;59.60
30467;DHT22;17258;52.560;13.046;2022-09-28T20:52:20;14.80;59.70
30467;DHT22;17258;52.560;13.046;2022-09-28T21:02:22;14.80;59.60
30467;DHT22;17258;52.560;13.046;2022-09-28T21:12:22;14.70;59.60
30467;DHT22;17258;52.560;13.046;2022-09-28T21:22:27;14.70;60.40
30467;DHT22;17258;52.560;13.046;2022-09-28T21:32:28;14.60;59.80
30467;DHT22;17258;52.560;13.046;2022-09-28T21:42:30;14.60;59.90
30467;DHT22;17258;52.560;13.046;2022-09-28T21:52:30;14.60;60.00
30467;DHT22;17258;52.560;13.046;2022-09-28T22:02:31;14.60;60.20
30467;DHT22;17258;52.560;13.046;2022-09-28T22:12:32;14.60;60.20
30467;DHT22;17258;52.560;13.046;2022-09-28T22:22:33;14.60;60.20
30467;DHT22;17258;52.560;13.046;2022-09-28T22:32:34;14.60;60.30
30467;DHT22;17258;52.560;13.046;2022-09-28T22:42:34;14.60;60.40
30467;DHT22;17258;52.560;13.046;2022-09-28T22:52:35;14.60;60.40
30467;DHT22;17258;52.560;13.046;2022-09-28T23:02:36;14.60;60.40
30467;DHT22;17258;52.560;13.046;2022-09-28T23:12:36;14.60;60.40
30467;DHT22;17258;52.560;13.046;2022-09-28T23:22:38;14.60;60.50
30467;DHT22;17258;52.560;13.046;2022-09-28T23:32:38;14.60;60.50
30467;DHT22;17258;52.560;13.046;2022-09-28T23:42:39;14.50;60.50
30467;DHT22;17258;52.560;13.046;2022-09-28T23:52:40;14.50;60.70
